createdAt,value
2016-06-01T00:00:45.931Z,0
2016-06-01T00:01:45.966Z,0
2016-06-01T00:02:45.984Z,0
2016-06-01T00:03:45.955Z,0
2016-06-01T00:04:45.989Z,0
2016-06-01T00:05:46.007Z,0
2016-06-01T00:06:46.010Z,0
2016-06-01T00:07:46.029Z,0
2016-06-01T00:08:46.140Z,0
2016-06-01T00:09:45.915Z,0
2016-06-01T00:10:45.944Z,0
2016-06-01T00:11:45.988Z,0
2016-06-01T00:12:45.816Z,0
2016-06-01T00:13:46.046Z,0
2016-06-01T00:14:46.218Z,0
2016-06-01T00:15:46.260Z,0
2016-06-01T00:16:46.257Z,0
2016-06-01T00:17:46.301Z,0
2016-06-01T00:18:46.297Z,0
2016-06-01T00:19:46.305Z,0
2016-06-01T00:20:46.180Z,0
2016-06-01T00:21:46.333Z,0
2016-06-01T00:22:46.192Z,0
2016-06-01T00:23:46.533Z,0
2016-06-01T00:24:46.424Z,0
2016-06-01T00:25:46.239Z,0
2016-06-01T00:26:46.243Z,0
2016-06-01T00:27:46.435Z,0
2016-06-01T00:28:46.408Z,0
2016-06-01T00:29:46.443Z,0
2016-06-01T00:30:46.290Z,0
2016-06-01T00:31:46.308Z,0
2016-06-01T00:32:46.327Z,0
2016-06-01T00:33:46.470Z,0
2016-06-01T00:34:46.489Z,0
2016-06-01T00:35:46.336Z,0
2016-06-01T00:36:46.526Z,0
2016-06-01T00:37:46.529Z,0
2016-06-01T00:38:46.578Z,0
2016-06-01T00:39:46.534Z,0
2016-06-01T00:40:46.553Z,0
2016-06-01T00:41:46.775Z,0
2016-06-01T00:42:46.542Z,0
2016-06-01T00:43:46.592Z,0
2016-06-01T00:44:46.563Z,0
2016-06-01T00:45:46.613Z,0
2016-06-01T00:46:46.444Z,0
2016-06-01T00:47:46.633Z,0
2016-06-01T00:48:46.636Z,0
2016-06-01T00:49:46.639Z,0
2016-06-01T00:50:46.642Z,0
2016-06-01T00:51:46.660Z,0
2016-06-01T00:52:46.663Z,0
2016-06-01T00:53:46.916Z,0
2016-06-01T00:54:46.543Z,0
2016-06-01T00:55:46.702Z,0
2016-06-01T00:56:46.690Z,0
2016-06-01T00:57:46.739Z,0
2016-06-01T00:58:46.726Z,0
2016-06-01T00:59:46.729Z,0
2016-06-01T01:00:46.731Z,0
2016-06-01T01:01:46.765Z,0
2016-06-01T01:02:46.753Z,0
2016-06-01T01:03:46.787Z,0
2016-06-01T01:04:46.804Z,0
2016-06-01T01:05:46.807Z,0
2016-06-01T01:06:46.778Z,0
2016-06-01T01:07:46.812Z,0
2016-06-01T01:08:46.831Z,0
2016-06-01T01:09:46.678Z,0
2016-06-01T01:10:46.852Z,0
2016-06-01T01:11:46.855Z,0
2016-06-01T01:12:46.889Z,0
2016-06-01T01:13:46.875Z,0
2016-06-01T01:14:46.894Z,0
2016-06-01T01:15:46.928Z,0
2016-06-01T01:16:46.619Z,0
2016-06-01T01:17:46.902Z,0
2016-06-01T01:18:46.936Z,0
2016-06-01T01:19:46.923Z,0
2016-06-01T01:20:46.941Z,0
2016-06-01T01:21:46.944Z,0
2016-06-01T01:22:46.822Z,0
2016-06-01T01:23:47.434Z,0
2016-06-01T01:24:47.280Z,0
2016-06-01T01:25:47.002Z,0
2016-06-01T01:26:47.004Z,0
2016-06-01T01:27:46.866Z,0
2016-06-01T01:28:46.869Z,0
2016-06-01T01:29:47.029Z,0
2016-06-01T01:30:46.890Z,0
2016-06-01T01:31:46.908Z,0
2016-06-01T01:32:47.083Z,0
2016-06-01T01:33:47.070Z,0
2016-06-01T01:34:47.104Z,0
2016-06-01T01:35:46.919Z,0
2016-06-01T01:36:47.125Z,0
2016-06-01T01:37:47.097Z,0
2016-06-01T01:38:47.006Z,0
2016-06-01T01:39:47.180Z,0
2016-06-01T01:40:47.151Z,0
2016-06-01T01:41:47.044Z,0
2016-06-01T01:42:47.156Z,0
2016-06-01T01:43:46.863Z,0
2016-06-01T01:44:47.178Z,0
2016-06-01T01:45:47.039Z,0
2016-06-01T01:46:47.042Z,0
2016-06-01T01:47:47.202Z,0
2016-06-01T01:48:47.064Z,0
2016-06-01T01:49:47.238Z,0
2016-06-01T01:50:47.085Z,0
2016-06-01T01:51:46.947Z,0
2016-06-01T01:52:47.152Z,0
2016-06-01T01:53:48.030Z,0
2016-06-01T01:54:47.157Z,0
2016-06-01T01:55:47.160Z,0
2016-06-01T01:56:47.304Z,0
2016-06-01T01:57:47.291Z,0
2016-06-01T01:58:47.356Z,0
2016-06-01T01:59:47.327Z,0
2016-06-01T02:00:47.346Z,0
2016-06-01T02:01:47.364Z,0
2016-06-01T02:02:47.210Z,0
2016-06-01T02:03:47.384Z,0
2016-06-01T02:04:47.388Z,0
2016-06-01T02:05:47.250Z,0
2016-06-01T02:06:47.409Z,0
2016-06-01T02:07:47.428Z,0
2016-06-01T02:08:47.148Z,0
2016-06-01T02:09:48.119Z,0
2016-06-01T02:10:47.436Z,0
2016-06-01T02:11:47.438Z,0
2016-06-01T02:12:47.456Z,0
2016-06-01T02:13:47.334Z,0
2016-06-01T02:14:47.305Z,0
2016-06-01T02:15:47.355Z,0
2016-06-01T02:16:47.358Z,0
2016-06-01T02:17:47.517Z,0
2016-06-01T02:18:47.519Z,0
2016-06-01T02:19:47.553Z,0
2016-06-01T02:20:47.368Z,0
2016-06-01T02:21:47.402Z,0
2016-06-01T02:22:47.546Z,0
2016-06-01T02:23:47.438Z,0
2016-06-01T02:24:48.239Z,0
2016-06-01T02:25:47.616Z,0
2016-06-01T02:26:47.587Z,0
2016-06-01T02:27:47.621Z,0
2016-06-01T02:28:47.609Z,0
2016-06-01T02:29:47.486Z,0
2016-06-01T02:30:47.646Z,0
2016-06-01T02:31:47.180Z,0
2016-06-01T02:32:47.650Z,0
2016-06-01T02:33:47.669Z,0
2016-06-01T02:34:47.531Z,0
2016-06-01T02:35:47.690Z,0
2016-06-01T02:36:47.709Z,0
2016-06-01T02:37:47.695Z,0
2016-06-01T02:38:47.635Z,0
2016-06-01T02:39:47.481Z,0
2016-06-01T02:40:47.750Z,0
2016-06-01T02:41:47.612Z,0
2016-06-01T02:42:47.600Z,0
2016-06-01T02:43:47.775Z,0
2016-06-01T02:44:47.620Z,0
2016-06-01T02:45:47.794Z,0
2016-06-01T02:46:47.828Z,0
2016-06-01T02:47:47.660Z,0
2016-06-01T02:48:47.709Z,0
2016-06-01T02:49:47.666Z,0
2016-06-01T02:50:47.824Z,0
2016-06-01T02:51:47.888Z,0
2016-06-01T02:52:47.860Z,0
2016-06-01T02:53:47.661Z,0
2016-06-01T02:54:47.600Z,0
2016-06-01T02:55:47.869Z,0
2016-06-01T02:56:47.810Z,0
2016-06-01T02:57:47.890Z,0
2016-06-01T02:58:47.939Z,0
2016-06-01T02:59:47.911Z,0
2016-06-01T03:00:47.804Z,0
2016-06-01T03:01:47.791Z,0
2016-06-01T03:02:47.951Z,0
2016-06-01T03:03:47.828Z,0
2016-06-01T03:04:47.986Z,0
2016-06-01T03:05:47.990Z,0
2016-06-01T03:06:47.867Z,0
2016-06-01T03:07:48.026Z,0
2016-06-01T03:08:48.935Z,0
2016-06-01T03:09:47.719Z,0
2016-06-01T03:10:48.050Z,0
2016-06-01T03:11:47.880Z,0
2016-06-01T03:12:47.899Z,0
2016-06-01T03:13:47.901Z,0
2016-06-01T03:14:48.092Z,0
2016-06-01T03:15:48.078Z,0
2016-06-01T03:16:48.113Z,0
2016-06-01T03:17:48.100Z,0
2016-06-01T03:18:48.119Z,0
2016-06-01T03:19:48.136Z,0
2016-06-01T03:20:48.124Z,0
2016-06-01T03:21:48.158Z,0
2016-06-01T03:22:48.144Z,0
2016-06-01T03:23:48.788Z,0
2016-06-01T03:24:48.181Z,0
2016-06-01T03:25:48.028Z,0
2016-06-01T03:26:48.030Z,0
2016-06-01T03:27:48.221Z,0
2016-06-01T03:28:48.224Z,0
2016-06-01T03:29:48.069Z,0
2016-06-01T03:30:47.932Z,0
2016-06-01T03:31:48.263Z,0
2016-06-01T03:32:48.250Z,0
2016-06-01T03:33:48.268Z,0
2016-06-01T03:34:48.270Z,0
2016-06-01T03:35:48.289Z,0
2016-06-01T03:36:48.151Z,0
2016-06-01T03:37:48.326Z,4
2016-06-01T03:38:49.001Z,4
2016-06-01T03:39:48.315Z,4
2016-06-01T03:40:48.177Z,4
2016-06-01T03:41:48.430Z,4
2016-06-01T03:42:48.339Z,4
2016-06-01T03:43:48.373Z,4
2016-06-01T03:44:48.392Z,4
2016-06-01T03:45:48.067Z,4
2016-06-01T03:46:48.396Z,4
2016-06-01T03:47:48.258Z,4
2016-06-01T03:48:48.417Z,0
2016-06-01T03:49:48.264Z,0
2016-06-01T03:50:48.454Z,0
2016-06-01T03:51:48.301Z,4
2016-06-01T03:52:48.443Z,4
2016-06-01T03:53:48.322Z,4
2016-06-01T03:54:48.325Z,4
2016-06-01T03:55:48.468Z,4
2016-06-01T03:56:48.502Z,4
2016-06-01T03:57:48.474Z,8
2016-06-01T03:58:48.351Z,4
2016-06-01T03:59:48.525Z,4
2016-06-01T04:00:48.559Z,4
2016-06-01T04:01:48.234Z,8
2016-06-01T04:02:48.565Z,8
2016-06-01T04:03:48.427Z,8
2016-06-01T04:04:48.571Z,4
2016-06-01T04:05:48.587Z,4
2016-06-01T04:06:48.591Z,4
2016-06-01T04:07:48.454Z,4
2016-06-01T04:08:48.628Z,4
2016-06-01T04:09:48.490Z,4
2016-06-01T04:10:48.634Z,4
2016-06-01T04:11:48.651Z,8
2016-06-01T04:12:48.498Z,8
2016-06-01T04:13:48.673Z,8
2016-06-01T04:14:48.519Z,8
2016-06-01T04:15:48.678Z,8
2016-06-01T04:16:48.525Z,8
2016-06-01T04:17:48.573Z,8
2016-06-01T04:18:48.701Z,4
2016-06-01T04:19:48.719Z,8
2016-06-01T04:20:48.567Z,8
2016-06-01T04:21:48.756Z,8
2016-06-01T04:22:48.744Z,8
2016-06-01T04:23:48.464Z,8
2016-06-01T04:24:49.514Z,8
2016-06-01T04:25:48.782Z,8
2016-06-01T04:26:48.630Z,8
2016-06-01T04:27:48.663Z,12
2016-06-01T04:28:48.807Z,12
2016-06-01T04:29:48.840Z,12
2016-06-01T04:30:48.656Z,12
2016-06-01T04:31:48.845Z,12
2016-06-01T04:32:48.677Z,8
2016-06-01T04:33:48.882Z,8
2016-06-01T04:34:48.838Z,8
2016-06-01T04:35:48.732Z,8
2016-06-01T04:36:48.890Z,8
2016-06-01T04:37:48.909Z,8
2016-06-01T04:38:48.927Z,12
2016-06-01T04:39:49.446Z,12
2016-06-01T04:40:48.776Z,12
2016-06-01T04:41:48.982Z,12
2016-06-01T04:42:48.969Z,12
2016-06-01T04:43:48.940Z,12
2016-06-01T04:44:48.990Z,12
2016-06-01T04:45:49.008Z,12
2016-06-01T04:46:48.995Z,12
2016-06-01T04:47:49.014Z,12
2016-06-01T04:48:48.860Z,12
2016-06-01T04:49:49.020Z,16
2016-06-01T04:50:49.006Z,16
2016-06-01T04:51:49.039Z,12
2016-06-01T04:52:48.903Z,16
2016-06-01T04:53:49.202Z,16
2016-06-01T04:54:50.297Z,16
2016-06-01T04:55:49.067Z,20
2016-06-01T04:56:48.913Z,16
2016-06-01T04:57:49.088Z,20
2016-06-01T04:58:49.121Z,20
2016-06-01T04:59:49.094Z,24
2016-06-01T05:00:49.143Z,24
2016-06-01T05:01:48.817Z,24
2016-06-01T05:02:49.023Z,28
2016-06-01T05:03:49.135Z,28
2016-06-01T05:04:49.169Z,32
2016-06-01T05:06:03.159Z,32
2016-06-01T05:06:49.205Z,36
2016-06-01T05:07:49.193Z,36
2016-06-01T05:08:49.618Z,36
2016-06-01T05:09:50.011Z,40
2016-06-01T05:10:49.076Z,40
2016-06-01T05:11:49.250Z,44
2016-06-01T05:12:49.253Z,44
2016-06-01T05:13:49.084Z,44
2016-06-01T05:14:49.273Z,44
2016-06-01T05:15:49.276Z,44
2016-06-01T05:16:49.311Z,48
2016-06-01T05:17:49.126Z,48
2016-06-01T05:18:49.300Z,52
2016-06-01T05:19:49.334Z,56
2016-06-01T05:20:49.306Z,52
2016-06-01T05:21:49.356Z,56
2016-06-01T05:22:49.342Z,52
2016-06-01T05:23:50.204Z,52
2016-06-01T05:24:49.426Z,52
2016-06-01T05:25:49.381Z,52
2016-06-01T05:26:49.228Z,52
2016-06-01T05:27:49.231Z,52
2016-06-01T05:28:49.405Z,52
2016-06-01T05:29:49.408Z,52
2016-06-01T05:30:49.427Z,52
2016-06-01T05:31:49.429Z,52
2016-06-01T05:32:49.447Z,52
2016-06-01T05:33:49.450Z,52
2016-06-01T05:34:49.468Z,52
2016-06-01T05:35:49.315Z,56
2016-06-01T05:36:49.349Z,56
2016-06-01T05:37:49.477Z,60
2016-06-01T05:38:49.776Z,64
2016-06-01T05:39:49.529Z,60
2016-06-01T05:40:49.375Z,60
2016-06-01T05:41:49.518Z,60
2016-06-01T05:42:49.396Z,60
2016-06-01T05:43:49.539Z,60
2016-06-01T05:44:49.386Z,68
2016-06-01T05:45:49.404Z,76
2016-06-01T05:46:49.595Z,80
2016-06-01T05:47:49.565Z,80
2016-06-01T05:48:49.459Z,84
2016-06-01T05:49:49.462Z,84
2016-06-01T05:50:49.637Z,92
2016-06-01T05:51:49.623Z,108
2016-06-01T05:52:49.486Z,116
2016-06-01T05:53:49.394Z,100
2016-06-01T05:54:50.522Z,108
2016-06-01T05:55:49.681Z,116
2016-06-01T05:56:49.669Z,112
2016-06-01T05:57:49.546Z,120
2016-06-01T05:58:49.549Z,128
2016-06-01T05:59:49.723Z,152
2016-06-01T06:00:49.414Z,124
2016-06-01T06:01:49.744Z,148
2016-06-01T06:02:49.731Z,116
2016-06-01T06:03:49.766Z,112
2016-06-01T06:04:49.768Z,104
2016-06-01T06:05:49.754Z,96
2016-06-01T06:06:49.632Z,92
2016-06-01T06:07:49.791Z,92
2016-06-01T06:08:49.810Z,104
2016-06-01T06:09:49.656Z,104
2016-06-01T06:10:52.752Z,100
2016-06-01T06:11:49.818Z,96
2016-06-01T06:12:49.837Z,104
2016-06-01T06:13:49.840Z,108
2016-06-01T06:14:49.842Z,112
2016-06-01T06:15:53.172Z,104
2016-06-01T06:16:49.893Z,104
2016-06-01T06:17:49.896Z,104
2016-06-01T06:18:49.883Z,104
2016-06-01T06:19:49.917Z,108
2016-06-01T06:20:54.389Z,100
2016-06-01T06:21:49.953Z,104
2016-06-01T06:22:49.769Z,108
2016-06-01T06:23:49.820Z,104
2016-06-01T06:24:51.025Z,88
2016-06-01T06:25:52.481Z,116
2016-06-01T06:26:49.811Z,112
2016-06-01T06:27:49.970Z,112
2016-06-01T06:28:50.004Z,108
2016-06-01T06:29:49.851Z,104
2016-06-01T06:30:52.947Z,96
2016-06-01T06:31:50.043Z,92
2016-06-01T06:32:49.733Z,96
2016-06-01T06:33:50.049Z,100
2016-06-01T06:34:49.896Z,96
2016-06-01T06:35:50.899Z,92
2016-06-01T06:36:50.057Z,108
2016-06-01T06:37:50.091Z,108
2016-06-01T06:38:49.952Z,100
2016-06-01T06:39:50.143Z,104
2016-06-01T06:40:51.349Z,104
2016-06-01T06:41:50.133Z,104
2016-06-01T06:42:50.136Z,112
2016-06-01T06:43:50.138Z,108
2016-06-01T06:44:50.141Z,108
2016-06-01T06:45:51.565Z,104
2016-06-01T06:46:50.193Z,108
2016-06-01T06:47:50.165Z,132
2016-06-01T06:49:21.529Z,124
2016-06-01T06:49:50.201Z,128
2016-06-01T06:50:53.564Z,128
2016-06-01T06:51:50.223Z,116
2016-06-01T06:52:50.100Z,172
2016-06-01T06:53:50.524Z,152
2016-06-01T06:54:50.824Z,136
2016-06-01T06:55:52.639Z,132
2016-06-01T06:56:50.251Z,136
2016-06-01T06:57:50.286Z,132
2016-06-01T06:58:50.164Z,132
2016-06-01T06:59:50.291Z,188
2016-06-01T07:00:52.933Z,156
2016-06-01T07:01:50.327Z,148
2016-06-01T07:02:50.205Z,140
2016-06-01T07:03:50.333Z,120
2016-06-01T07:04:50.211Z,136
2016-06-01T07:05:53.495Z,148
2016-06-01T07:06:50.372Z,140
2016-06-01T07:07:50.234Z,152
2016-06-01T07:08:50.284Z,156
2016-06-01T07:09:50.411Z,148
2016-06-01T07:10:53.946Z,132
2016-06-01T07:11:50.276Z,172
2016-06-01T07:12:50.279Z,100
2016-06-01T07:13:50.297Z,168
2016-06-01T07:14:50.440Z,152
2016-06-01T07:15:52.615Z,116
2016-06-01T07:16:50.476Z,124
2016-06-01T07:17:50.496Z,124
2016-06-01T07:18:50.514Z,108
2016-06-01T07:19:50.501Z,168
2016-06-01T07:20:53.035Z,136
2016-06-01T07:21:50.537Z,156
2016-06-01T07:22:50.525Z,168
2016-06-01T07:23:50.417Z,132
2016-06-01T07:24:51.576Z,180
2016-06-01T07:25:52.861Z,140
2016-06-01T07:26:50.582Z,144
2016-06-01T07:27:50.600Z,172
2016-06-01T07:28:50.587Z,120
2016-06-01T07:29:50.606Z,176
2016-06-01T07:30:54.014Z,132
2016-06-01T07:31:50.470Z,204
2016-06-01T07:32:50.489Z,192
2016-06-01T07:33:50.664Z,164
2016-06-01T07:34:50.666Z,148
2016-06-01T07:35:52.450Z,152
2016-06-01T07:36:50.672Z,168
2016-06-01T07:37:50.690Z,156
2016-06-01T07:38:51.488Z,144
2016-06-01T07:39:50.554Z,136
2016-06-01T07:40:53.932Z,140
2016-06-01T07:41:50.732Z,120
2016-06-01T07:42:50.735Z,124
2016-06-01T07:43:50.425Z,128
2016-06-01T07:44:50.615Z,172
2016-06-01T07:45:53.867Z,148
2016-06-01T07:46:50.620Z,152
2016-06-01T07:47:50.779Z,228
2016-06-01T07:48:50.641Z,240
2016-06-01T07:49:50.801Z,172
2016-06-01T07:50:53.021Z,140
2016-06-01T07:51:50.821Z,132
2016-06-01T07:52:50.839Z,144
2016-06-01T07:53:50.904Z,152
2016-06-01T07:54:51.329Z,152
2016-06-01T07:55:53.535Z,160
2016-06-01T07:56:50.897Z,164
2016-06-01T07:57:50.900Z,160
2016-06-01T07:58:50.918Z,160
2016-06-01T07:59:50.749Z,168
2016-06-01T08:00:50.924Z,188
2016-06-01T08:01:50.925Z,216
2016-06-01T08:02:50.944Z,204
2016-06-01T08:03:50.947Z,196
2016-06-01T08:04:50.794Z,184
2016-06-01T08:05:53.327Z,176
2016-06-01T08:06:50.814Z,168
2016-06-01T08:07:51.005Z,180
2016-06-01T08:08:51.070Z,176
2016-06-01T08:09:51.666Z,192
2016-06-01T08:10:52.654Z,168
2016-06-01T08:11:50.890Z,152
2016-06-01T08:12:51.034Z,132
2016-06-01T08:13:51.052Z,144
2016-06-01T08:14:51.071Z,160
2016-06-01T08:15:53.152Z,148
2016-06-01T08:16:50.920Z,172
2016-06-01T08:17:51.079Z,164
2016-06-01T08:18:51.112Z,160
2016-06-01T08:19:51.115Z,164
2016-06-01T08:20:54.321Z,152
2016-06-01T08:21:50.980Z,148
2016-06-01T08:22:51.124Z,152
2016-06-01T08:23:51.017Z,168
2016-06-01T08:24:51.191Z,164
2016-06-01T08:25:54.007Z,160
2016-06-01T08:26:51.025Z,188
2016-06-01T08:27:51.200Z,212
2016-06-01T08:28:51.202Z,260
2016-06-01T08:29:51.080Z,204
2016-06-01T08:30:53.989Z,200
2016-06-01T08:31:51.242Z,212
2016-06-01T08:32:51.275Z,208
2016-06-01T08:33:51.261Z,196
2016-06-01T08:34:51.094Z,172
2016-06-01T08:35:51.283Z,160
2016-06-01T08:36:51.286Z,152
2016-06-01T08:37:51.305Z,164
2016-06-01T08:38:51.057Z,168
2016-06-01T08:39:51.341Z,160
2016-06-01T08:40:53.531Z,168
2016-06-01T08:41:51.205Z,180
2016-06-01T08:42:51.240Z,196
2016-06-01T08:43:51.368Z,204
2016-06-01T08:44:51.355Z,216
2016-06-01T08:45:53.544Z,216
2016-06-01T08:46:51.407Z,240
2016-06-01T08:47:51.410Z,272
2016-06-01T08:48:51.413Z,268
2016-06-01T08:49:51.274Z,268
2016-06-01T08:50:55.026Z,252
2016-06-01T08:51:51.435Z,236
2016-06-01T08:52:51.329Z,248
2016-06-01T08:53:51.660Z,252
2016-06-01T08:54:51.335Z,244
2016-06-01T08:55:55.150Z,228
2016-06-01T08:56:51.496Z,200
2016-06-01T08:57:51.359Z,180
2016-06-01T08:58:51.345Z,176
2016-06-01T08:59:51.535Z,168
2016-06-01T09:00:53.164Z,172
2016-06-01T09:01:51.541Z,188
2016-06-01T09:02:51.575Z,216
2016-06-01T09:03:51.422Z,236
2016-06-01T09:04:51.564Z,240
2016-06-01T09:05:51.630Z,232
2016-06-01T09:06:51.601Z,244
2016-06-01T09:07:51.635Z,248
2016-06-01T09:08:52.872Z,280
2016-06-01T09:09:52.312Z,248
2016-06-01T09:10:51.486Z,260
2016-06-01T09:11:51.661Z,272
2016-06-01T09:12:51.680Z,276
2016-06-01T09:13:51.683Z,280
2016-06-01T09:14:51.669Z,276
2016-06-01T09:15:51.720Z,256
2016-06-01T09:16:51.560Z,224
2016-06-01T09:17:51.774Z,208
2016-06-01T09:18:51.628Z,208
2016-06-01T09:19:51.922Z,224
2016-06-01T09:20:51.900Z,208
2016-06-01T09:21:51.881Z,188
2016-06-01T09:22:51.875Z,204
2016-06-01T09:23:51.778Z,264
2016-06-01T09:24:53.023Z,312
2016-06-01T09:25:51.956Z,368
2016-06-01T09:26:51.993Z,380
2016-06-01T09:27:51.984Z,296
2016-06-01T09:28:52.004Z,408
2016-06-01T09:29:52.010Z,284
2016-06-01T09:30:52.016Z,268
2016-06-01T09:31:52.035Z,272
2016-06-01T09:32:52.071Z,300
2016-06-01T09:33:52.060Z,268
2016-06-01T09:34:52.063Z,312
2016-06-01T09:35:52.098Z,312
2016-06-01T09:36:52.116Z,296
2016-06-01T09:37:51.948Z,276
2016-06-01T09:38:52.107Z,252
2016-06-01T09:39:52.157Z,228
2016-06-01T09:40:52.128Z,236
2016-06-01T09:41:52.007Z,252
2016-06-01T09:42:52.182Z,256
2016-06-01T09:43:52.169Z,252
2016-06-01T09:44:52.203Z,212
2016-06-01T09:45:52.034Z,184
2016-06-01T09:46:52.240Z,168
2016-06-01T09:47:52.212Z,160
2016-06-01T09:48:52.090Z,152
2016-06-01T09:49:52.217Z,156
2016-06-01T09:50:52.111Z,164
2016-06-01T09:51:52.239Z,180
2016-06-01T09:52:52.242Z,192
2016-06-01T09:53:52.275Z,204
2016-06-01T09:54:52.605Z,208
2016-06-01T09:55:52.281Z,208
2016-06-01T09:56:52.314Z,212
2016-06-01T09:57:52.333Z,216
2016-06-01T09:58:52.350Z,212
2016-06-01T09:59:52.338Z,208
2016-06-01T10:00:52.372Z,212
2016-06-01T10:01:52.203Z,212
2016-06-01T10:02:52.378Z,212
2016-06-01T10:03:52.208Z,220
2016-06-01T10:04:52.241Z,232
2016-06-01T10:05:52.277Z,252
2016-06-01T10:06:52.419Z,244
2016-06-01T10:07:52.407Z,244
2016-06-01T10:08:52.440Z,240
2016-06-01T10:09:52.146Z,244
2016-06-01T10:10:52.461Z,248
2016-06-01T10:11:52.464Z,248
2016-06-01T10:12:52.467Z,244
2016-06-01T10:13:52.485Z,240
2016-06-01T10:14:52.503Z,244
2016-06-01T10:15:52.538Z,248
2016-06-01T10:16:52.524Z,244
2016-06-01T10:17:52.386Z,248
2016-06-01T10:18:52.389Z,252
2016-06-01T10:19:52.564Z,256
2016-06-01T10:20:52.410Z,272
2016-06-01T10:21:52.569Z,296
2016-06-01T10:22:52.603Z,296
2016-06-01T10:23:52.590Z,296
2016-06-01T10:24:54.015Z,320
2016-06-01T10:25:52.456Z,348
2016-06-01T10:26:52.473Z,460
2016-06-01T10:27:52.647Z,360
2016-06-01T10:28:52.494Z,340
2016-06-01T10:29:52.497Z,380
2016-06-01T10:30:52.656Z,324
2016-06-01T10:31:52.689Z,320
2016-06-01T10:32:52.677Z,472
2016-06-01T10:33:52.539Z,436
2016-06-01T10:34:52.573Z,468
2016-06-01T10:35:52.560Z,300
2016-06-01T10:36:52.578Z,424
2016-06-01T10:37:52.737Z,432
2016-06-01T10:38:52.631Z,412
2016-06-01T10:39:52.961Z,308
2016-06-01T10:40:52.791Z,444
2016-06-01T10:41:52.780Z,440
2016-06-01T10:42:52.813Z,456
2016-06-01T10:43:52.800Z,456
2016-06-01T10:44:52.818Z,344
2016-06-01T10:45:52.821Z,296
2016-06-01T10:46:52.839Z,448
2016-06-01T10:47:52.874Z,412
2016-06-01T10:48:52.688Z,276
2016-06-01T10:49:52.848Z,260
2016-06-01T10:50:52.913Z,252
2016-06-01T10:51:52.885Z,268
2016-06-01T10:52:52.746Z,228
2016-06-01T10:53:52.905Z,216
2016-06-01T10:54:53.626Z,216
2016-06-01T10:55:53.207Z,220
2016-06-01T10:56:52.976Z,228
2016-06-01T10:57:52.947Z,232
2016-06-01T10:58:52.825Z,236
2016-06-01T10:59:52.984Z,232
2016-06-01T11:00:53.018Z,224
2016-06-01T11:01:52.990Z,224
2016-06-01T11:02:52.991Z,228
2016-06-01T11:03:53.025Z,260
2016-06-01T11:04:52.856Z,280
2016-06-01T11:05:53.047Z,284
2016-06-01T11:06:53.033Z,272
2016-06-01T11:07:52.911Z,196
2016-06-01T11:08:53.039Z,192
2016-06-01T11:09:53.355Z,196
2016-06-01T11:10:53.060Z,192
2016-06-01T11:11:53.094Z,188
2016-06-01T11:12:53.081Z,208
2016-06-01T11:13:53.099Z,220
2016-06-01T11:14:53.149Z,188
2016-06-01T11:15:52.840Z,168
2016-06-01T11:16:53.138Z,152
2016-06-01T11:17:53.032Z,140
2016-06-01T11:18:53.019Z,136
2016-06-01T11:19:53.210Z,140
2016-06-01T11:20:53.196Z,128
2016-06-01T11:21:53.199Z,124
2016-06-01T11:22:53.186Z,116
2016-06-01T11:23:53.220Z,112
2016-06-01T11:24:53.332Z,112
2016-06-01T11:25:53.085Z,120
2016-06-01T11:26:53.228Z,136
2016-06-01T11:27:52.965Z,152
2016-06-01T11:28:53.281Z,164
2016-06-01T11:29:53.299Z,160
2016-06-01T11:30:53.145Z,176
2016-06-01T11:31:53.132Z,188
2016-06-01T11:32:53.306Z,196
2016-06-01T11:33:53.309Z,204
2016-06-01T11:34:53.328Z,208
2016-06-01T11:35:53.331Z,204
2016-06-01T11:36:53.350Z,208
2016-06-01T11:37:53.195Z,212
2016-06-01T11:38:53.370Z,204
2016-06-01T11:39:54.608Z,188
2016-06-01T11:40:53.391Z,168
2016-06-01T11:41:53.409Z,156
2016-06-01T11:42:53.568Z,168
2016-06-01T11:43:53.430Z,196
2016-06-01T11:44:53.449Z,388
2016-06-01T11:45:53.436Z,304
2016-06-01T11:46:53.282Z,424
2016-06-01T11:47:53.472Z,420
2016-06-01T11:48:53.507Z,332
2016-06-01T11:49:53.321Z,312
2016-06-01T11:50:53.496Z,372
2016-06-01T11:51:53.499Z,240
2016-06-01T11:52:53.532Z,240
2016-06-01T11:53:53.535Z,268
2016-06-01T11:54:54.350Z,248
2016-06-01T11:55:53.228Z,212
2016-06-01T11:56:53.575Z,196
2016-06-01T11:57:53.406Z,184
2016-06-01T11:58:53.580Z,168
2016-06-01T11:59:53.567Z,156
2016-06-01T12:00:53.586Z,156
2016-06-01T12:01:53.589Z,160
2016-06-01T12:02:53.622Z,168
2016-06-01T12:03:53.594Z,180
2016-06-01T12:04:53.487Z,196
2016-06-01T12:05:53.662Z,208
2016-06-01T12:06:53.647Z,244
2016-06-01T12:07:53.667Z,192
2016-06-01T12:08:53.686Z,192
2016-06-01T12:09:53.828Z,196
2016-06-01T12:10:53.705Z,204
2016-06-01T12:11:53.709Z,232
2016-06-01T12:12:53.727Z,208
2016-06-01T12:13:53.714Z,196
2016-06-01T12:14:53.733Z,212
2016-06-01T12:15:53.735Z,188
2016-06-01T12:16:53.754Z,188
2016-06-01T12:17:53.787Z,196
2016-06-01T12:18:53.618Z,204
2016-06-01T12:19:53.793Z,224
2016-06-01T12:20:53.795Z,248
2016-06-01T12:21:53.782Z,264
2016-06-01T12:22:53.645Z,260
2016-06-01T12:23:53.819Z,276
2016-06-01T12:24:53.868Z,288
2016-06-01T12:25:53.856Z,332
2016-06-01T12:26:53.843Z,312
2016-06-01T12:27:53.876Z,324
2016-06-01T12:28:53.724Z,212
2016-06-01T12:29:53.882Z,204
2016-06-01T12:30:53.744Z,200
2016-06-01T12:31:53.920Z,196
2016-06-01T12:32:53.922Z,188
2016-06-01T12:33:53.767Z,184
2016-06-01T12:34:53.786Z,176
2016-06-01T12:35:53.976Z,172
2016-06-01T12:36:53.947Z,168
2016-06-01T12:37:53.951Z,168
2016-06-01T12:38:53.953Z,204
2016-06-01T12:39:54.300Z,216
2016-06-01T12:40:53.990Z,192
2016-06-01T12:41:54.024Z,188
2016-06-01T12:42:54.167Z,200
2016-06-01T12:43:54.045Z,224
2016-06-01T12:44:54.032Z,208
2016-06-01T12:45:54.034Z,184
2016-06-01T12:46:54.038Z,176
2016-06-01T12:47:54.087Z,180
2016-06-01T12:48:53.918Z,180
2016-06-01T12:49:54.093Z,180
2016-06-01T12:50:54.079Z,172
2016-06-01T12:51:54.113Z,168
2016-06-01T12:52:54.132Z,160
2016-06-01T12:53:53.979Z,160
2016-06-01T12:54:54.215Z,172
2016-06-01T12:55:54.187Z,188
2016-06-01T12:56:54.018Z,216
2016-06-01T12:57:54.192Z,208
2016-06-01T12:58:54.179Z,244
2016-06-01T12:59:54.245Z,252
2016-06-01T13:00:54.059Z,268
2016-06-01T13:01:54.203Z,296
2016-06-01T13:02:53.924Z,296
2016-06-01T13:03:54.083Z,284
2016-06-01T13:04:54.070Z,224
2016-06-01T13:05:54.261Z,204
2016-06-01T13:06:54.106Z,204
2016-06-01T13:07:54.266Z,208
2016-06-01T13:08:53.986Z,216
2016-06-01T13:09:54.567Z,196
2016-06-01T13:10:54.164Z,188
2016-06-01T13:11:54.308Z,228
2016-06-01T13:12:54.169Z,184
2016-06-01T13:13:54.328Z,164
2016-06-01T13:14:54.221Z,160
2016-06-01T13:15:54.349Z,156
2016-06-01T13:16:54.399Z,164
2016-06-01T13:17:54.402Z,164
2016-06-01T13:18:54.405Z,168
2016-06-01T13:19:54.094Z,172
2016-06-01T13:20:54.426Z,188
2016-06-01T13:21:54.429Z,200
2016-06-01T13:22:54.416Z,208
2016-06-01T13:23:54.293Z,200
2016-06-01T13:24:55.030Z,192
2016-06-01T13:25:54.471Z,216
2016-06-01T13:26:54.473Z,196
2016-06-01T13:27:54.475Z,184
2016-06-01T13:28:54.510Z,160
2016-06-01T13:29:54.496Z,124
2016-06-01T13:30:54.531Z,100
2016-06-01T13:31:54.517Z,88
2016-06-01T13:32:54.567Z,80
2016-06-01T13:33:54.539Z,80
2016-06-01T13:34:54.572Z,80
2016-06-01T13:35:54.576Z,88
2016-06-01T13:36:54.578Z,92
2016-06-01T13:37:54.597Z,96
2016-06-01T13:38:54.614Z,100
2016-06-01T13:39:54.414Z,108
2016-06-01T13:40:54.636Z,120
2016-06-01T13:41:54.638Z,128
2016-06-01T13:42:54.641Z,140
2016-06-01T13:43:54.658Z,148
2016-06-01T13:44:54.678Z,144
2016-06-01T13:45:54.525Z,140
2016-06-01T13:52:36.322Z,160
2016-06-01T13:52:48.763Z,160
2016-06-01T13:53:48.781Z,168
2016-06-01T13:54:50.049Z,184
2016-06-01T13:55:48.630Z,228
2016-06-01T13:56:48.789Z,212
2016-06-01T13:57:48.666Z,220
2016-06-01T14:04:04.652Z,204
2016-06-01T14:05:18.796Z,200
2016-06-01T14:06:04.611Z,200
2016-06-01T14:07:04.660Z,204
2016-06-01T14:08:04.647Z,200
2016-06-01T14:09:18.807Z,248
2016-06-01T14:10:05.309Z,248
2016-06-01T14:11:04.719Z,232
2016-06-01T14:12:18.893Z,196
2016-06-01T14:13:04.770Z,196
2016-06-01T14:14:04.741Z,212
2016-06-01T14:15:04.729Z,232
2016-06-01T14:16:04.607Z,208
2016-06-01T14:17:04.749Z,260
2016-06-01T14:18:04.832Z,240
2016-06-01T14:19:04.755Z,224